sensor_id;sensor_type;location;lat;lon;timestamp;P1;durP1;ratioP1;P2;durP2;ratioP2
1589;SDS011;788;48.720;9.158;2022-10-31T07:35:38;10.20;;;6.47;;
1589;SDS011;788;48.720;9.158;2022-10-31T08:18:15;9.00;;;8.00;;
1589;SDS011;788;48.720;9.158;2022-10-31T08:20:42;8.60;;;7.90;;
1589;SDS011;788;48.720;9.158;2022-10-31T08:23:10;9.40;;;8.03;;
1589;SDS011;788;48.720;9.158;2022-10-31T08:25:37;7.70;;;6.93;;
1589;SDS011;788;48.720;9.158;2022-10-31T08:28:10;7.50;;;6.80;;
1589;SDS011;788;48.720;9.158;2022-10-31T08:31:03;7.83;;;7.13;;
1589;SDS011;788;48.720;9.158;2022-10-31T08:33:37;9.60;;;7.40;;
1589;SDS011;788;48.720;9.158;2022-10-31T08:36:04;9.30;;;8.40;;
1589;SDS011;788;48.720;9.158;2022-10-31T08:38:45;7.23;;;6.73;;
1589;SDS011;788;48.720;9.158;2022-10-31T08:45:05;8.10;;;7.30;;
1589;SDS011;788;48.720;9.158;2022-10-31T08:54:46;9.83;;;6.60;;
1589;SDS011;788;48.720;9.158;2022-10-31T08:57:56;6.90;;;6.30;;
1589;SDS011;788;48.720;9.158;2022-10-31T09:00:47;6.80;;;6.20;;
1589;SDS011;788;48.720;9.158;2022-10-31T09:20:08;6.63;;;5.97;;
1589;SDS011;788;48.720;9.158;2022-10-31T09:23:19;8.50;;;7.37;;
1589;SDS011;788;48.720;9.158;2022-10-31T09:37:29;7.37;;;6.80;;
1589;SDS011;788;48.720;9.158;2022-10-31T09:50:06;6.67;;;6.13;;
1589;SDS011;788;48.720;9.158;2022-10-31T09:53:31;7.23;;;6.53;;
1589;SDS011;788;48.720;9.158;2022-10-31T10:07:16;10.83;;;6.70;;
1589;SDS011;788;48.720;9.158;2022-10-31T10:10:20;8.00;;;7.03;;
1589;SDS011;788;48.720;9.158;2022-10-31T10:13:27;8.93;;;6.80;;
1589;SDS011;788;48.720;9.158;2022-10-31T10:16:22;7.33;;;6.53;;
1589;SDS011;788;48.720;9.158;2022-10-31T10:20:10;6.77;;;6.07;;
1589;SDS011;788;48.720;9.158;2022-10-31T18:46:34;13.40;;;11.20;;
1589;SDS011;788;48.720;9.158;2022-10-31T18:49:02;13.90;;;11.67;;
1589;SDS011;788;48.720;9.158;2022-10-31T18:51:29;13.50;;;10.50;;
1589;SDS011;788;48.720;9.158;2022-10-31T18:53:57;12.70;;;11.40;;
1589;SDS011;788;48.720;9.158;2022-10-31T18:56:25;13.23;;;10.80;;
1589;SDS011;788;48.720;9.158;2022-10-31T18:58:52;15.33;;;11.93;;
1589;SDS011;788;48.720;9.158;2022-10-31T19:01:20;12.77;;;11.50;;
1589;SDS011;788;48.720;9.158;2022-10-31T19:03:52;14.07;;;11.50;;
1589;SDS011;788;48.720;9.158;2022-10-31T19:06:20;13.27;;;10.80;;
1589;SDS011;788;48.720;9.158;2022-10-31T19:08:47;16.80;;;11.60;;
1589;SDS011;788;48.720;9.158;2022-10-31T19:11:14;12.80;;;10.93;;
1589;SDS011;788;48.720;9.158;2022-10-31T19:13:41;15.00;;;11.37;;
1589;SDS011;788;48.720;9.158;2022-10-31T19:16:08;12.40;;;11.17;;
1589;SDS011;788;48.720;9.158;2022-10-31T19:18:38;15.50;;;13.40;;
1589;SDS011;788;48.720;9.158;2022-10-31T19:21:07;16.90;;;14.17;;
1589;SDS011;788;48.720;9.158;2022-10-31T19:23:35;15.30;;;13.77;;
1589;SDS011;788;48.720;9.158;2022-10-31T19:26:02;14.30;;;12.80;;
1589;SDS011;788;48.720;9.158;2022-10-31T19:28:29;15.77;;;14.10;;
1589;SDS011;788;48.720;9.158;2022-10-31T19:30:57;15.23;;;13.67;;
1589;SDS011;788;48.720;9.158;2022-10-31T19:33:24;15.40;;;13.80;;
1589;SDS011;788;48.720;9.158;2022-10-31T19:35:57;17.20;;;15.47;;
1589;SDS011;788;48.720;9.158;2022-10-31T19:38:26;18.60;;;16.80;;
1589;SDS011;788;48.720;9.158;2022-10-31T19:40:56;16.67;;;14.87;;
1589;SDS011;788;48.720;9.158;2022-10-31T19:43:23;13.53;;;11.30;;
1589;SDS011;788;48.720;9.158;2022-10-31T19:45:54;12.77;;;11.67;;
1589;SDS011;788;48.720;9.158;2022-10-31T19:48:21;12.20;;;10.93;;
1589;SDS011;788;48.720;9.158;2022-10-31T19:50:48;14.87;;;10.03;;
1589;SDS011;788;48.720;9.158;2022-10-31T19:53:16;35.00;;;29.00;;
1589;SDS011;788;48.720;9.158;2022-10-31T19:55:44;24.50;;;21.90;;
1589;SDS011;788;48.720;9.158;2022-10-31T19:58:11;24.47;;;21.07;;
1589;SDS011;788;48.720;9.158;2022-10-31T20:00:38;23.00;;;19.30;;
1589;SDS011;788;48.720;9.158;2022-10-31T20:03:05;17.37;;;15.20;;
1589;SDS011;788;48.720;9.158;2022-10-31T20:05:32;18.43;;;13.80;;
1589;SDS011;788;48.720;9.158;2022-10-31T20:07:59;15.57;;;12.77;;
1589;SDS011;788;48.720;9.158;2022-10-31T20:10:25;13.60;;;10.40;;
1589;SDS011;788;48.720;9.158;2022-10-31T20:12:53;12.30;;;11.03;;
1589;SDS011;788;48.720;9.158;2022-10-31T20:15:20;12.10;;;9.87;;
1589;SDS011;788;48.720;9.158;2022-10-31T20:17:47;13.10;;;9.77;;
1589;SDS011;788;48.720;9.158;2022-10-31T20:20:14;11.90;;;9.47;;
1589;SDS011;788;48.720;9.158;2022-10-31T20:22:41;13.93;;;10.13;;
1589;SDS011;788;48.720;9.158;2022-10-31T20:25:08;9.73;;;8.73;;
1589;SDS011;788;48.720;9.158;2022-10-31T20:27:35;11.23;;;10.07;;
1589;SDS011;788;48.720;9.158;2022-10-31T20:30:03;10.80;;;9.70;;
1589;SDS011;788;48.720;9.158;2022-10-31T20:32:31;10.87;;;9.87;;
1589;SDS011;788;48.720;9.158;2022-10-31T20:34:58;11.47;;;10.40;;
1589;SDS011;788;48.720;9.158;2022-10-31T20:37:24;10.13;;;9.13;;
1589;SDS011;788;48.720;9.158;2022-10-31T20:39:51;10.47;;;9.07;;
1589;SDS011;788;48.720;9.158;2022-10-31T20:42:18;15.10;;;9.03;;
1589;SDS011;788;48.720;9.158;2022-10-31T20:44:45;11.17;;;9.13;;
1589;SDS011;788;48.720;9.158;2022-10-31T20:47:14;12.70;;;9.00;;
1589;SDS011;788;48.720;9.158;2022-10-31T20:49:40;11.57;;;10.33;;
1589;SDS011;788;48.720;9.158;2022-10-31T20:52:07;12.93;;;11.63;;
1589;SDS011;788;48.720;9.158;2022-10-31T20:54:34;14.17;;;9.60;;
1589;SDS011;788;48.720;9.158;2022-10-31T20:57:01;9.90;;;8.90;;
1589;SDS011;788;48.720;9.158;2022-10-31T20:59:27;10.23;;;9.17;;
1589;SDS011;788;48.720;9.158;2022-10-31T21:01:54;10.10;;;9.10;;
1589;SDS011;788;48.720;9.158;2022-10-31T21:04:22;16.20;;;8.97;;
1589;SDS011;788;48.720;9.158;2022-10-31T21:06:49;11.17;;;9.67;;
1589;SDS011;788;48.720;9.158;2022-10-31T21:09:16;10.73;;;9.73;;
1589;SDS011;788;48.720;9.158;2022-10-31T21:11:42;10.23;;;9.30;;
1589;SDS011;788;48.720;9.158;2022-10-31T21:14:09;13.10;;;9.40;;
1589;SDS011;788;48.720;9.158;2022-10-31T21:16:36;10.83;;;9.73;;
1589;SDS011;788;48.720;9.158;2022-10-31T21:19:03;11.17;;;10.00;;
1589;SDS011;788;48.720;9.158;2022-10-31T21:21:32;10.63;;;9.33;;
1589;SDS011;788;48.720;9.158;2022-10-31T21:24:01;12.13;;;10.60;;
1589;SDS011;788;48.720;9.158;2022-10-31T21:26:30;10.30;;;9.30;;
1589;SDS011;788;48.720;9.158;2022-10-31T21:28:59;12.37;;;10.07;;
1589;SDS011;788;48.720;9.158;2022-10-31T21:31:27;11.40;;;10.20;;
1589;SDS011;788;48.720;9.158;2022-10-31T21:33:54;13.90;;;10.70;;
1589;SDS011;788;48.720;9.158;2022-10-31T21:36:21;10.77;;;9.80;;
1589;SDS011;788;48.720;9.158;2022-10-31T21:38:51;11.10;;;9.50;;
1589;SDS011;788;48.720;9.158;2022-10-31T21:41:19;11.40;;;10.20;;
1589;SDS011;788;48.720;9.158;2022-10-31T21:43:47;10.23;;;9.33;;
1589;SDS011;788;48.720;9.158;2022-10-31T21:46:15;10.20;;;9.40;;
1589;SDS011;788;48.720;9.158;2022-10-31T21:48:44;11.40;;;10.03;;
1589;SDS011;788;48.720;9.158;2022-10-31T21:51:12;12.03;;;10.93;;
1589;SDS011;788;48.720;9.158;2022-10-31T21:53:40;12.23;;;9.90;;
1589;SDS011;788;48.720;9.158;2022-10-31T21:56:25;13.77;;;9.27;;
1589;SDS011;788;48.720;9.158;2022-10-31T21:58:53;12.10;;;11.00;;
1589;SDS011;788;48.720;9.158;2022-10-31T22:01:20;12.80;;;10.60;;
1589;SDS011;788;48.720;9.158;2022-10-31T22:03:48;11.20;;;10.20;;
1589;SDS011;788;48.720;9.158;2022-10-31T22:06:15;11.00;;;9.83;;
1589;SDS011;788;48.720;9.158;2022-10-31T22:08:42;10.70;;;9.80;;
1589;SDS011;788;48.720;9.158;2022-10-31T22:11:09;10.67;;;9.67;;
1589;SDS011;788;48.720;9.158;2022-10-31T22:13:39;13.37;;;9.93;;
1589;SDS011;788;48.720;9.158;2022-10-31T22:16:08;11.57;;;10.47;;
1589;SDS011;788;48.720;9.158;2022-10-31T22:18:36;12.80;;;11.60;;
1589;SDS011;788;48.720;9.158;2022-10-31T22:21:04;16.03;;;11.20;;
1589;SDS011;788;48.720;9.158;2022-10-31T22:23:33;14.40;;;9.90;;
1589;SDS011;788;48.720;9.158;2022-10-31T22:26:01;13.00;;;11.17;;
1589;SDS011;788;48.720;9.158;2022-10-31T22:28:28;12.97;;;11.87;;
1589;SDS011;788;48.720;9.158;2022-10-31T22:30:56;12.50;;;9.83;;
1589;SDS011;788;48.720;9.158;2022-10-31T22:33:24;11.93;;;10.70;;
1589;SDS011;788;48.720;9.158;2022-10-31T22:35:51;13.93;;;10.50;;
1589;SDS011;788;48.720;9.158;2022-10-31T22:38:17;12.87;;;11.77;;
1589;SDS011;788;48.720;9.158;2022-10-31T22:40:44;10.83;;;9.73;;
1589;SDS011;788;48.720;9.158;2022-10-31T22:43:11;11.30;;;9.20;;
1589;SDS011;788;48.720;9.158;2022-10-31T22:45:38;12.60;;;9.23;;
1589;SDS011;788;48.720;9.158;2022-10-31T22:48:06;10.33;;;9.33;;
1589;SDS011;788;48.720;9.158;2022-10-31T22:50:33;10.00;;;9.10;;
1589;SDS011;788;48.720;9.158;2022-10-31T22:52:59;12.33;;;10.27;;
1589;SDS011;788;48.720;9.158;2022-10-31T22:55:26;16.27;;;9.43;;
1589;SDS011;788;48.720;9.158;2022-10-31T22:57:53;11.13;;;8.47;;
1589;SDS011;788;48.720;9.158;2022-10-31T23:00:19;10.33;;;9.37;;
1589;SDS011;788;48.720;9.158;2022-10-31T23:02:46;11.00;;;9.33;;
1589;SDS011;788;48.720;9.158;2022-10-31T23:05:14;12.93;;;11.07;;
1589;SDS011;788;48.720;9.158;2022-10-31T23:07:41;10.67;;;9.77;;
1589;SDS011;788;48.720;9.158;2022-10-31T23:10:08;11.97;;;8.43;;
1589;SDS011;788;48.720;9.158;2022-10-31T23:12:35;10.60;;;9.47;;
1589;SDS011;788;48.720;9.158;2022-10-31T23:15:19;12.20;;;10.37;;
1589;SDS011;788;48.720;9.158;2022-10-31T23:17:46;9.33;;;8.47;;
1589;SDS011;788;48.720;9.158;2022-10-31T23:20:12;12.10;;;8.77;;
1589;SDS011;788;48.720;9.158;2022-10-31T23:22:40;9.60;;;8.77;;
1589;SDS011;788;48.720;9.158;2022-10-31T23:25:07;9.67;;;8.77;;
1589;SDS011;788;48.720;9.158;2022-10-31T23:27:34;10.73;;;9.07;;
1589;SDS011;788;48.720;9.158;2022-10-31T23:30:00;9.97;;;8.97;;
1589;SDS011;788;48.720;9.158;2022-10-31T23:32:27;9.40;;;8.40;;
1589;SDS011;788;48.720;9.158;2022-10-31T23:34:56;9.77;;;8.47;;
1589;SDS011;788;48.720;9.158;2022-10-31T23:37:26;9.83;;;8.93;;
1589;SDS011;788;48.720;9.158;2022-10-31T23:39:54;9.10;;;8.20;;
1589;SDS011;788;48.720;9.158;2022-10-31T23:42:21;9.87;;;8.60;;
1589;SDS011;788;48.720;9.158;2022-10-31T23:44:49;11.70;;;9.50;;
1589;SDS011;788;48.720;9.158;2022-10-31T23:47:16;9.93;;;8.30;;
1589;SDS011;788;48.720;9.158;2022-10-31T23:49:43;9.90;;;8.10;;
1589;SDS011;788;48.720;9.158;2022-10-31T23:52:10;9.80;;;8.93;;
1589;SDS011;788;48.720;9.158;2022-10-31T23:54:39;8.27;;;7.43;;
1589;SDS011;788;48.720;9.158;2022-10-31T23:57:06;11.80;;;8.90;;
1589;SDS011;788;48.720;9.158;2022-10-31T23:59:33;10.37;;;9.47;;
